Terminal Aerodrome Forecast
Issued by NWS

Home | Current Version | Previous Version | Text Only | Print | Product List | Glossary On
Versions: 1 2 3 4 5 6 7 8 9 10 11 12 13 14 15 16 17 18 19 20 21 22 23
000
FTUS45 KCYS 020520
TAFLAR
TAF
KLAR 020520Z 0206/0306 VRB06KT P6SM BKN200
     FM021700 09010KT P6SM SCT200
     FM022000 10012KT P6SM VCTS SCT100CB BKN250=

USA.gov is the U.S. government's official web portal to all federal, state and local government web resources and services.